Time;durP1;ratioP1;P1;durP2;ratioP2;P2;SDS_P1;SDS_P2;PMS_P1;PMS_P2;Temp;Humidity;BMP_temperature;BMP_pressure;BME280_temperature;BME280_humidity;BME280_pressure;Samples;Min_cycle;Max_cycle;Signal;HPM_P1;HPM_P2
2022/10/05 00:01:01;;;;;;;6.55;5.95;;;;;;;12.38;100.00;97038.81;5044805;28;20091;-50
2022/10/05 00:03:35;;;;;;;7.35;6.60;;;;;;;11.73;100.00;97033.25;5046589;28;20076;-50
2022/10/05 00:06:04;;;;;;;10.55;8.85;;;;;;;11.04;100.00;97033.22;5043630;28;20069;-53
2022/10/05 00:08:34;;;;;;;10.88;9.07;;;;;;;11.08;100.00;97022.28;5046213;28;20087;-48
2022/10/05 00:11:02;;;;;;;9.35;7.10;;;;;;;11.77;100.00;97021.44;5045013;28;20468;-51
2022/10/05 00:13:31;;;;;;;8.38;6.93;;;;;;;12.48;100.00;97004.44;5045650;28;20080;-48
2022/10/05 00:16:08;;;;;;;9.80;8.05;;;;;;;12.39;100.00;96992.06;5045706;28;20075;-52
2022/10/05 00:18:36;;;;;;;11.50;8.85;;;;;;;12.47;100.00;96987.72;5043031;28;20065;-50
2022/10/05 00:21:15;;;;;;;11.38;9.25;;;;;;;12.59;100.00;96993.66;5044600;28;20687;-51
2022/10/05 00:23:43;;;;;;;12.57;9.05;;;;;;;12.42;100.00;96987.34;5046719;28;20084;-55
2022/10/05 00:26:19;;;;;;;10.82;9.15;;;;;;;12.80;100.00;96982.88;5047505;28;20084;-52
2022/10/05 00:28:47;;;;;;;11.85;9.00;;;;;;;12.48;100.00;96986.75;5043672;28;20098;-53
2022/10/05 00:31:20;;;;;;;11.88;9.02;;;;;;;12.61;100.00;96982.97;5045821;28;20085;-54
2022/10/05 00:33:49;;;;;;;12.18;9.23;;;;;;;12.46;100.00;96979.94;5046248;28;20072;-49
2022/10/05 00:36:18;;;;;;;12.50;8.73;;;;;;;12.40;100.00;96978.69;5046835;28;20076;-49
2022/10/05 00:38:46;;;;;;;12.68;9.07;;;;;;;12.53;100.00;96978.41;5042925;28;20088;-53
2022/10/05 00:41:18;;;;;;;11.07;8.57;;;;;;;12.15;100.00;96979.28;5038281;28;20076;-48
2022/10/05 00:44:29;;;;;;;10.65;8.70;;;;;;;12.70;100.00;96974.16;5045349;28;20079;-50
2022/10/05 00:47:06;;;;;;;9.85;8.18;;;;;;;12.93;100.00;96967.50;4997639;28;20529;-52
2022/10/05 00:49:48;;;;;;;12.75;8.30;;;;;;;12.68;100.00;96968.16;5006965;28;20236;-51
2022/10/05 00:52:24;;;;;;;10.32;8.05;;;;;;;12.90;100.00;96962.47;5019101;28;20678;-55
2022/10/05 00:55:00;;;;;;;10.43;8.20;;;;;;;12.94;100.00;96963.88;5034698;28;20507;-53
2022/10/05 00:57:36;;;;;;;10.52;8.13;;;;;;;13.01;100.00;96962.31;5037992;28;20080;-51
2022/10/05 01:00:06;;;;;;;10.20;7.93;;;;;;;13.04;100.00;96966.47;5038365;28;20132;-49
2022/10/05 01:02:46;;;;;;;9.43;7.57;;;;;;;12.98;100.00;96964.41;5044410;28;20072;-48
2022/10/05 01:05:21;;;;;;;13.33;7.87;;;;;;;13.04;100.00;96961.16;5048721;28;20127;-52
2022/10/05 01:07:55;;;;;;;9.13;7.43;;;;;;;13.03;100.00;96957.69;5047281;28;20491;-55
2022/10/05 01:10:27;;;;;;;10.13;7.10;;;;;;;12.96;100.00;96958.44;5048035;28;20085;-48
2022/10/05 01:13:02;;;;;;;9.25;7.88;;;;;;;12.00;100.00;96953.28;5046164;28;20091;-46
2022/10/05 01:15:34;;;;;;;9.15;7.95;;;;;;;11.97;100.00;96952.75;5046106;28;20089;-50
2022/10/05 01:18:10;;;;;;;11.20;8.02;;;;;;;11.95;100.00;96939.69;5048794;28;20081;-48
2022/10/05 01:20:53;;;;;;;13.25;8.70;;;;;;;12.46;100.00;96934.97;5048949;28;20460;-51
2022/10/05 01:23:57;;;;;;;10.73;8.88;;;;;;;12.98;100.00;96930.00;5051118;28;20532;-48
2022/10/05 01:26:38;;;;;;;11.50;8.65;;;;;;;13.08;100.00;96930.78;5044553;28;20088;-49
2022/10/05 01:29:14;;;;;;;11.18;8.32;;;;;;;13.15;100.00;96933.66;5049528;28;20084;-47
2022/10/05 01:31:46;;;;;;;9.35;7.55;;;;;;;13.06;100.00;96927.44;5050343;28;20456;-46
2022/10/05 01:34:23;;;;;;;8.05;7.00;;;;;;;13.10;100.00;96920.03;5047863;28;20091;-49
2022/10/05 01:36:56;;;;;;;8.68;7.32;;;;;;;12.86;100.00;96926.72;5042684;28;20087;-52
2022/10/05 01:39:31;;;;;;;8.05;6.78;;;;;;;12.88;100.00;96927.41;5044049;28;20045;-51
2022/10/05 01:42:04;;;;;;;10.10;7.13;;;;;;;12.83;100.00;96927.00;5044009;28;20088;-51
2022/10/05 01:44:39;;;;;;;7.70;6.90;;;;;;;12.87;100.00;96922.25;5042369;28;20491;-49
2022/10/05 01:47:09;;;;;;;7.82;7.03;;;;;;;12.71;100.00;96928.19;5042366;28;20060;-49
2022/10/05 01:49:44;;;;;;;9.05;6.85;;;;;;;12.71;100.00;96926.38;5040985;28;20587;-48
2022/10/05 01:52:23;;;;;;;33.72;6.80;;;;;;;13.01;100.00;96940.31;5044319;28;20084;-47
2022/10/05 01:55:00;;;;;;;23.23;6.40;;;;;;;12.91;100.00;96937.69;5043496;28;20551;-50
2022/10/05 01:57:37;;;;;;;10.13;6.00;;;;;;;12.71;100.00;96936.97;5044893;28;20084;-47
2022/10/05 02:00:09;;;;;;;7.38;6.50;;;;;;;12.28;100.00;96935.69;5044643;28;20069;-49
2022/10/05 02:02:40;;;;;;;8.40;6.90;;;;;;;12.68;100.00;96929.31;5039162;28;20564;-52
2022/10/05 02:05:11;;;;;;;7.28;6.18;;;;;;;12.44;100.00;96929.00;5042955;28;20085;-46
2022/10/05 02:07:42;;;;;;;7.68;6.05;;;;;;;12.43;100.00;96924.69;5044888;28;20077;-50
2022/10/05 02:10:18;;;;;;;7.32;6.53;;;;;;;12.31;100.00;96926.66;5041665;28;20820;-50
2022/10/05 02:12:47;;;;;;;9.48;7.03;;;;;;;12.76;100.00;96926.75;5046235;28;20084;-47
2022/10/05 02:15:20;;;;;;;8.82;6.70;;;;;;;13.05;100.00;96920.50;5048934;28;20084;-48
2022/10/05 02:17:51;;;;;;;7.47;6.28;;;;;;;13.02;100.00;96915.47;5047421;28;20166;-51
2022/10/05 02:20:23;;;;;;;10.27;6.93;;;;;;;12.90;100.00;96909.53;5049040;28;20543;-53
2022/10/05 02:22:53;;;;;;;9.05;7.03;;;;;;;12.56;100.00;96922.56;5046862;28;20085;-47
2022/10/05 02:25:23;;;;;;;7.75;6.95;;;;;;;12.76;100.00;96908.22;5048731;28;20130;-50
2022/10/05 02:27:54;;;;;;;7.47;6.75;;;;;;;12.86;100.00;96900.25;5048853;28;20084;-45
2022/10/05 02:30:24;;;;;;;7.65;6.60;;;;;;;12.43;100.00;96906.16;5047924;28;20074;-50
2022/10/05 02:32:55;;;;;;;8.45;6.65;;;;;;;12.44;100.00;96905.19;5048072;28;20553;-51
2022/10/05 02:35:23;;;;;;;10.13;7.07;;;;;;;12.61;100.00;96908.88;5045587;28;20622;-53
2022/10/05 02:38:00;;;;;;;8.93;6.78;;;;;;;12.21;100.00;96902.03;5048065;28;20083;-46
2022/10/05 02:40:39;;;;;;;8.32;6.57;;;;;;;11.75;100.00;96898.38;5047368;28;20079;-47
2022/10/05 02:43:18;;;;;;;10.43;7.20;;;;;;;12.70;100.00;96897.44;5047111;28;20142;-53
2022/10/05 02:45:53;;;;;;;7.18;6.47;;;;;;;12.74;100.00;96891.69;5049528;28;20081;-46
2022/10/05 02:48:29;;;;;;;7.15;6.45;;;;;;;12.92;100.00;96890.88;5048295;28;20084;-48
2022/10/05 02:51:02;;;;;;;7.35;6.50;;;;;;;12.95;100.00;96891.41;5048325;28;20084;-53
2022/10/05 02:53:35;;;;;;;7.15;6.30;;;;;;;12.86;100.00;96888.81;5047471;28;20095;-53
2022/10/05 02:56:13;;;;;;;7.10;6.40;;;;;;;12.86;100.00;96905.53;5048381;28;20088;-49
2022/10/05 02:58:46;;;;;;;6.82;5.85;;;;;;;12.57;100.00;96911.81;5046751;28;20092;-49
2022/10/05 03:01:20;;;;;;;6.80;6.05;;;;;;;12.61;100.00;96904.41;5047095;28;20076;-49
2022/10/05 03:03:54;;;;;;;10.15;6.97;;;;;;;11.94;100.00;96908.94;5048269;28;20602;-51
2022/10/05 03:06:25;;;;;;;16.17;7.63;;;;;;;11.86;100.00;96906.16;5047832;28;20079;-49
2022/10/05 03:09:00;;;;;;;25.50;7.72;;;;;;;12.23;100.00;96910.69;5049369;28;20087;-50
2022/10/05 03:11:35;;;;;;;29.58;7.10;;;;;;;12.31;100.00;96916.91;5048081;28;20081;-48
2022/10/05 03:14:08;;;;;;;26.17;5.45;;;;;;;12.42;100.00;96925.63;5045614;28;20079;-47
2022/10/05 03:16:47;;;;;;;6.53;5.57;;;;;;;12.20;100.00;96911.78;5047418;28;20081;-48
2022/10/05 03:19:25;;;;;;;6.60;5.90;;;;;;;11.32;100.00;96918.09;5045543;28;20084;-55
2022/10/05 03:21:59;;;;;;;7.20;5.97;;;;;;;10.68;100.00;96914.09;5046567;28;20069;-52
2022/10/05 03:24:39;;;;;;;6.47;5.82;;;;;;;11.56;100.00;96902.72;5047144;28;20462;-50
2022/10/05 03:27:14;;;;;;;7.13;6.18;;;;;;;11.97;100.00;96905.16;5045825;28;20077;-50
2022/10/05 03:29:48;;;;;;;6.85;6.15;;;;;;;12.06;100.00;96904.31;5046933;28;20115;-51
2022/10/05 03:32:25;;;;;;;7.32;5.90;;;;;;;12.04;100.00;96901.84;5043958;28;20080;-50
2022/10/05 03:34:57;;;;;;;7.18;6.20;;;;;;;12.07;100.00;96905.97;5046135;28;20072;-52
2022/10/05 03:37:29;;;;;;;6.22;5.63;;;;;;;12.25;100.00;96906.06;5045571;28;20100;-51
2022/10/05 03:40:02;;;;;;;8.32;6.43;;;;;;;12.13;100.00;96912.53;5045083;28;20079;-49
2022/10/05 03:42:37;;;;;;;7.00;6.25;;;;;;;11.89;100.00;96903.25;5045964;28;20084;-50
2022/10/05 03:45:09;;;;;;;7.68;5.80;;;;;;;11.80;100.00;96898.75;5045094;28;20093;-52
2022/10/05 03:47:45;;;;;;;6.78;6.07;;;;;;;11.25;100.00;96907.28;5045922;28;20096;-48
2022/10/05 03:50:31;;;;;;;6.57;5.85;;;;;;;11.67;100.00;96895.59;5046514;28;20092;-49
2022/10/05 03:53:02;;;;;;;6.82;5.85;;;;;;;11.16;100.00;96895.72;5046873;28;20085;-50
2022/10/05 03:55:31;;;;;;;;;;;;;;;10.58;100.00;96892.13;5044735;28;20803;-47
2022/10/05 03:58:03;;;;;;;6.00;5.40;;;;;;;10.81;100.00;96898.88;5046166;28;19971;-50
2022/10/05 04:00:32;;;;;;;5.68;5.18;;;;;;;11.02;100.00;96903.22;5045066;28;20101;-50
2022/10/05 04:03:04;;;;;;;6.60;5.00;;;;;;;11.66;100.00;96892.09;5043025;28;20456;-52
2022/10/05 04:05:36;;;;;;;17.60;10.18;;;;;;;11.85;100.00;96893.94;5044667;28;20084;-51
2022/10/05 04:08:07;;;;;;;16.52;9.48;;;;;;;11.53;100.00;96894.22;5045778;28;20084;-49
2022/10/05 04:10:39;;;;;;;6.85;5.13;;;;;;;11.76;100.00;96898.22;5046987;28;20087;-47
2022/10/05 04:13:13;;;;;;;8.15;4.57;;;;;;;11.84;100.00;96893.09;5046500;28;20077;-51
2022/10/05 04:15:43;;;;;;;5.57;4.47;;;;;;;11.84;100.00;96898.38;5043939;28;20091;-51
2022/10/05 04:18:21;;;;;;;8.27;4.50;;;;;;;11.31;100.00;96906.72;5044323;28;20080;-54
2022/10/05 04:20:51;;;;;;;5.50;4.60;;;;;;;11.52;100.00;96898.66;5038541;28;20095;-53
2022/10/05 04:23:26;;;;;;;6.70;4.28;;;;;;;11.33;100.00;96894.22;5037692;28;20073;-46
2022/10/05 04:25:57;;;;;;;7.10;5.45;;;;;;;11.24;100.00;96894.22;5034185;28;20076;-54
2022/10/05 04:28:29;;;;;;;7.30;5.72;;;;;;;11.24;100.00;96889.75;5031682;28;20104;-50
2022/10/05 04:31:00;;;;;;;7.18;5.43;;;;;;;11.34;100.00;96887.94;5036017;28;20532;-50
2022/10/05 04:33:31;;;;;;;6.15;5.13;;;;;;;11.76;100.00;96886.81;5038826;28;20077;-46
2022/10/05 04:36:11;;;;;;;6.90;4.90;;;;;;;11.82;100.00;96883.63;5046144;28;20081;-52
2022/10/05 04:38:48;;;;;;;5.70;4.70;;;;;;;11.73;100.00;96882.63;5046562;28;20092;-51
2022/10/05 04:41:29;;;;;;;7.68;4.75;;;;;;;11.72;100.00;96894.19;5033077;28;21825;-52
2022/10/05 04:44:12;;;;;;;6.47;4.55;;;;;;;11.58;100.00;96898.09;5038197;28;20083;-52
2022/10/05 04:46:59;;;;;;;5.93;4.70;;;;;;;11.59;100.00;96897.13;5040721;28;20178;-51
2022/10/05 04:49:48;;;;;;;6.72;4.80;;;;;;;11.03;100.00;96900.44;5044499;28;20088;-45
2022/10/05 04:52:23;;;;;;;6.65;4.90;;;;;;;11.52;100.00;96893.38;5045092;28;20077;-51
2022/10/05 04:55:02;;;;;;;5.07;4.57;;;;;;;10.96;100.00;96907.22;5043584;28;20099;-51
2022/10/05 04:57:38;;;;;;;4.55;4.10;;;;;;;10.88;100.00;96912.34;5035287;28;20479;-47
2022/10/05 05:00:20;;;;;;;5.30;4.22;;;;;;;10.93;100.00;96915.41;5042028;28;20076;-47
2022/10/05 05:03:01;;;;;;;6.30;4.35;;;;;;;11.28;100.00;96914.91;5045486;28;20077;-47
2022/10/05 05:05:36;;;;;;;6.70;4.50;;;;;;;10.82;100.00;96916.38;5037292;28;20084;-57
2022/10/05 05:08:35;;;;;;;6.95;4.80;;;;;;;11.31;100.00;96917.28;5032133;28;20095;-54
2022/10/05 05:11:11;;;;;;;4.55;4.15;;;;;;;11.15;100.00;96917.84;5031803;28;20084;-51
2022/10/05 05:14:07;;;;;;;6.72;4.25;;;;;;;11.15;100.00;96917.00;5032845;28;20188;-53
2022/10/05 05:16:37;;;;;;;6.97;4.50;;;;;;;10.39;100.00;96919.25;5033776;28;20163;-49
2022/10/05 05:19:28;;;;;;;5.00;4.50;;;;;;;10.74;100.00;96915.38;5042147;28;20538;-52
2022/10/05 05:22:02;;;;;;;4.90;3.75;;;;;;;10.99;100.00;96921.97;5041775;28;20076;-51
2022/10/05 05:24:39;;;;;;;5.57;3.83;;;;;;;10.90;100.00;96923.59;5042678;28;20471;-47
2022/10/05 05:27:24;;;;;;;4.85;4.28;;;;;;;11.60;100.00;96919.09;5042202;28;20096;-50
2022/10/05 05:30:02;;;;;;;4.80;4.28;;;;;;;11.69;100.00;96928.00;5043354;28;20076;-51
2022/10/05 05:32:39;;;;;;;7.13;4.53;;;;;;;11.37;100.00;96929.94;5043005;28;20523;-46
2022/10/05 05:35:34;;;;;;;4.80;4.30;;;;;;;10.80;100.00;96928.00;5040489;28;20076;-46
2022/10/05 05:38:14;;;;;;;6.72;5.20;;;;;;;10.92;100.00;96925.13;5041923;28;20083;-49
2022/10/05 05:40:48;;;;;;;6.03;5.30;;;;;;;11.00;100.00;96927.09;5042585;28;20077;-48
2022/10/05 05:43:24;;;;;;;9.40;5.10;;;;;;;11.45;100.00;96917.84;5043153;28;20085;-51
2022/10/05 05:45:58;;;;;;;8.10;5.10;;;;;;;11.56;100.00;96915.91;5043929;28;20084;-54
2022/10/05 05:48:32;;;;;;;5.90;5.30;;;;;;;11.87;100.00;96919.25;5045816;28;20084;-48
2022/10/05 05:51:04;;;;;;;5.00;4.32;;;;;;;11.12;100.00;96928.66;5044102;28;20131;-48
2022/10/05 05:53:35;;;;;;;5.57;4.55;;;;;;;11.94;100.00;96922.16;5042314;28;20081;-50
2022/10/05 05:56:08;;;;;;;4.93;4.43;;;;;;;12.04;100.00;96914.19;5046801;28;20079;-51
2022/10/05 05:58:41;;;;;;;5.82;4.68;;;;;;;12.12;100.00;96909.03;5044991;28;20191;-47
2022/10/05 06:01:12;;;;;;;9.13;4.93;;;;;;;12.06;100.00;96912.25;5040465;28;20084;-51
2022/10/05 06:04:03;;;;;;;8.48;4.78;;;;;;;12.29;100.00;96910.94;5043504;28;20107;-49
2022/10/05 06:06:34;;;;;;;5.13;3.92;;;;;;;12.57;100.00;96909.16;5044907;28;20076;-49
2022/10/05 06:09:05;;;;;;;6.18;4.38;;;;;;;12.81;100.00;96915.75;5041610;28;20503;-46
2022/10/05 06:11:38;;;;;;;5.93;3.70;;;;;;;12.97;100.00;96917.72;5044054;28;20083;-51
2022/10/05 06:14:12;;;;;;;4.28;3.50;;;;;;;13.03;100.00;96922.44;5044254;28;20077;-51
2022/10/05 06:16:44;;;;;;;5.22;3.90;;;;;;;13.12;100.00;96920.72;5045785;28;20076;-49
2022/10/05 06:19:16;;;;;;;4.30;3.90;;;;;;;13.21;100.00;96922.47;5045815;28;20118;-52
2022/10/05 06:21:46;;;;;;;7.40;4.07;;;;;;;13.35;100.00;96922.00;5042717;28;20095;-52
2022/10/05 06:24:19;;;;;;;6.15;3.72;;;;;;;13.43;100.00;96923.88;5043206;28;20076;-51
2022/10/05 06:27:20;;;;;;;4.47;3.45;;;;;;;13.66;100.00;96921.59;5044259;28;20088;-47
2022/10/05 06:30:00;;;;;;;5.00;3.65;;;;;;;13.80;100.00;96923.72;5027002;28;20570;-51
2022/10/05 06:32:30;;;;;;;6.18;3.85;;;;;;;13.90;100.00;96921.81;5045253;28;20092;-51
2022/10/05 06:35:08;;;;;;;4.68;3.58;;;;;;;14.13;100.00;96924.78;5041657;28;20103;-53
2022/10/05 06:37:56;;;;;;;7.88;3.67;;;;;;;14.46;100.00;96923.19;5044754;28;20081;-49
2022/10/05 06:40:38;;;;;;;4.00;3.58;;;;;;;14.71;100.00;96918.84;5041931;28;20528;-47
2022/10/05 06:43:18;;;;;;;5.38;3.55;;;;;;;14.94;100.00;96919.13;5044348;28;20468;-50
2022/10/05 06:45:58;;;;;;;4.30;3.30;;;;;;;15.01;100.00;96918.47;5043315;28;20076;-49
2022/10/05 06:48:35;;;;;;;5.72;3.90;;;;;;;15.18;100.00;96921.03;5043855;28;20509;-48
2022/10/05 06:51:09;;;;;;;5.80;4.10;;;;;;;15.26;100.00;96922.03;5045592;28;20094;-47
2022/10/05 06:53:40;;;;;;;8.68;5.13;;;;;;;15.46;100.00;96911.94;5047339;28;20543;-47
2022/10/05 06:56:13;;;;;;;7.25;4.63;;;;;;;15.47;100.00;96916.25;5046063;28;20080;-50
2022/10/05 06:58:51;;;;;;;5.82;4.32;;;;;;;15.82;100.00;96912.50;5050454;28;20080;-50
2022/10/05 07:01:29;;;;;;;4.55;3.60;;;;;;;16.04;100.00;96906.50;5043275;28;20095;-49
2022/10/05 07:04:09;;;;;;;4.53;2.90;;;;;;;15.93;100.00;96911.31;5048419;28;20065;-48
2022/10/05 07:06:40;;;;;;;2.70;2.50;;;;;;;16.37;100.00;96909.94;5044285;28;20084;-48
2022/10/05 07:09:24;;;;;;;4.40;2.55;;;;;;;16.47;100.00;96917.72;5039547;28;20084;-50
2022/10/05 07:12:29;;;;;;;3.08;2.58;;;;;;;16.47;100.00;96915.06;5039238;28;20088;-47
2022/10/05 07:15:22;;;;;;;5.25;2.30;;;;;;;17.07;100.00;96914.56;5012541;28;20084;-52
2022/10/05 07:18:01;;;;;;;4.45;2.30;;;;;;;16.99;100.00;96922.56;5040363;28;20506;-47
2022/10/05 07:20:32;;;;;;;3.63;2.00;;;;;;;17.23;100.00;96923.47;5036483;28;20140;-49
2022/10/05 07:23:18;;;;;;;3.40;2.00;;;;;;;16.87;100.00;96928.47;5047679;28;20113;-45
2022/10/05 07:25:50;;;;;;;5.85;2.40;;;;;;;17.18;100.00;96929.31;5049245;28;20079;-46
2022/10/05 07:28:28;;;;;;;2.35;1.95;;;;;;;17.75;100.00;96930.78;5044443;28;20071;-51
2022/10/05 07:31:00;;;;;;;4.28;1.92;;;;;;;17.55;100.00;96943.78;5045239;28;20590;-50
2022/10/05 07:33:32;;;;;;;2.10;1.80;;;;;;;17.75;100.00;96942.28;5048528;28;20083;-49
2022/10/05 07:38:55;;;;;;;3.92;1.90;;;;;;;18.06;100.00;96954.78;5049459;28;20147;-46
2022/10/05 07:41:31;;;;;;;2.33;1.92;;;;;;;18.41;100.00;96958.66;5044162;28;20076;-48
2022/10/05 07:44:11;;;;;;;5.22;1.80;;;;;;;18.63;100.00;96948.91;5039469;28;20029;-45
2022/10/05 07:46:50;;;;;;;5.20;2.08;;;;;;;18.94;100.00;96958.63;5037668;28;20077;-50
2022/10/05 07:49:26;;;;;;;4.57;1.63;;;;;;;19.09;100.00;96959.44;5034925;28;20076;-50
2022/10/05 07:51:58;;;;;;;3.92;1.90;;;;;;;19.32;100.00;96955.81;5037539;28;20084;-52
2022/10/05 07:54:34;;;;;;;2.53;1.75;;;;;;;18.82;100.00;96966.25;5031885;28;20127;-53
2022/10/05 07:57:09;;;;;;;4.53;1.73;;;;;;;19.30;100.00;96964.00;5034255;28;20127;-48
2022/10/05 07:59:44;;;;;;;3.17;1.98;;;;;;;19.65;100.00;96965.09;5042525;28;20076;-50
2022/10/05 08:02:18;;;;;;;5.63;2.05;;;;;;;19.89;100.00;96958.53;5038299;28;20088;-48
2022/10/05 08:04:52;;;;;;;3.92;1.70;;;;;;;20.04;100.00;96963.00;5047558;28;20088;-45
2022/10/05 08:07:20;;;;;;;2.60;1.83;;;;;;;19.38;100.00;96966.59;5048315;28;20080;-48
2022/10/05 08:09:52;;;;;;;3.58;1.83;;;;;;;20.33;100.00;96956.66;5040547;28;20084;-53
2022/10/05 08:12:27;;;;;;;3.85;2.17;;;;;;;20.49;92.82;96964.41;5032283;28;20136;-48
2022/10/05 08:14:58;;;;;;;3.20;1.75;;;;;;;19.62;100.00;96973.47;5035834;28;20128;-48
2022/10/05 08:17:33;;;;;;;2.80;1.95;;;;;;;20.68;100.00;96964.75;5038365;28;20534;-49
2022/10/05 08:20:16;;;;;;;3.08;1.95;;;;;;;21.11;85.65;96962.78;5032918;28;20124;-47
2022/10/05 08:22:47;;;;;;;6.63;1.83;;;;;;;20.10;100.00;96973.78;5039338;28;20091;-49
2022/10/05 08:25:22;;;;;;;4.05;1.80;;;;;;;19.78;100.00;96971.59;5044909;28;20405;-49
2022/10/05 08:27:53;;;;;;;4.25;1.70;;;;;;;21.25;93.13;96956.44;5043835;28;20490;-50
2022/10/05 08:30:23;;;;;;;4.45;1.70;;;;;;;20.43;100.00;96967.03;5040867;28;20092;-48
2022/10/05 08:32:55;;;;;;;4.45;1.60;;;;;;;21.37;89.74;96961.25;5043154;28;20060;-51
2022/10/05 08:35:28;;;;;;;5.30;1.70;;;;;;;22.00;79.36;96964.53;5045605;28;20068;-52
2022/10/05 08:37:57;;;;;;;3.65;1.40;;;;;;;20.96;86.32;96965.59;5035836;28;21354;-52
2022/10/05 08:40:51;;;;;;;3.28;1.58;;;;;;;22.07;82.14;96957.31;5039189;28;20072;-52
2022/10/05 08:43:36;;;;;;;2.25;1.50;;;;;;;21.61;85.43;96962.56;5042526;28;20079;-48
2022/10/05 08:46:30;;;;;;;3.47;1.50;;;;;;;22.54;79.08;96965.41;5042997;28;20080;-51
2022/10/05 08:49:22;;;;;;;2.15;1.60;;;;;;;22.75;73.16;96962.50;5037215;28;20088;-48
2022/10/05 08:52:16;;;;;;;4.18;1.70;;;;;;;23.12;74.93;96962.84;5040192;28;20550;-52
2022/10/05 08:55:14;;;;;;;3.40;1.60;;;;;;;23.05;77.32;96962.06;5040812;28;20088;-49
2022/10/05 08:58:22;;;;;;;3.88;1.73;;;;;;;22.88;76.34;96959.81;5037712;28;20076;-46
2022/10/05 09:00:56;;;;;;;2.70;1.52;;;;;;;23.67;68.55;96956.06;5040478;28;20079;-50
2022/10/05 09:03:50;;;;;;;4.70;1.50;;;;;;;23.52;70.66;96960.84;5041364;28;20107;-48
2022/10/05 09:06:51;;;;;;;4.57;1.55;;;;;;;23.43;68.85;96962.97;5028564;28;20080;-49
2022/10/05 09:09:47;;;;;;;6.63;2.22;;;;;;;23.49;68.39;96955.06;5044127;28;20072;-50
2022/10/05 09:12:33;;;;;;;4.07;1.50;;;;;;;23.47;69.52;96960.69;5044285;28;20068;-45
2022/10/05 09:15:15;;;;;;;7.40;1.85;;;;;;;23.98;65.18;96965.19;5042102;28;20083;-48
2022/10/05 09:18:25;;;;;;;3.80;1.83;;;;;;;24.14;62.08;96966.53;5040221;28;20084;-51
2022/10/05 09:20:58;;;;;;;7.32;1.50;;;;;;;24.26;60.81;96956.72;5042182;28;20068;-45
2022/10/05 09:23:36;;;;;;;4.18;1.70;;;;;;;24.04;61.74;96966.19;5040454;28;20456;-48
2022/10/05 09:26:22;;;;;;;5.80;1.55;;;;;;;23.76;63.64;96964.69;5043077;28;20432;-52
2022/10/05 09:29:01;;;;;;;3.15;1.70;;;;;;;24.40;62.51;96960.16;5043032;28;20089;-52
2022/10/05 09:31:44;;;;;;;2.58;1.50;;;;;;;24.65;57.74;96962.84;5045774;28;20088;-51
2022/10/05 09:34:46;;;;;;;4.35;1.70;;;;;;;25.05;55.70;96957.03;5040234;28;20080;-47
2022/10/05 09:37:35;;;;;;;5.00;1.60;;;;;;;25.40;57.27;96962.72;5026671;28;20486;-48
2022/10/05 09:40:22;;;;;;;7.28;1.65;;;;;;;25.41;56.33;96955.44;5050171;28;20064;-50
2022/10/05 09:43:08;;;;;;;5.90;1.40;;;;;;;25.27;56.57;96950.19;5041568;28;20480;-46
2022/10/05 09:46:03;;;;;;;5.95;1.70;;;;;;;24.91;58.28;96950.94;5042172;28;20072;-46
2022/10/05 09:49:16;;;;;;;2.90;1.55;;;;;;;24.91;58.43;96948.25;5037435;28;20088;-50
2022/10/05 09:52:14;;;;;;;5.65;1.70;;;;;;;25.05;59.99;96957.03;5040916;28;20068;-51
2022/10/05 09:55:24;;;;;;;2.83;1.45;;;;;;;25.53;57.41;96954.44;5038732;28;20203;-50
2022/10/05 09:58:19;;;;;;;5.10;1.50;;;;;;;24.97;62.28;96949.25;4980506;28;20550;-50
2022/10/05 10:01:05;;;;;;;3.35;1.50;;;;;;;25.49;56.71;96944.31;4996973;28;20088;-47
2022/10/05 10:04:06;;;;;;;2.05;1.60;;;;;;;25.27;53.38;96955.56;5033905;28;20081;-50
2022/10/05 10:07:07;;;;;;;4.60;1.77;;;;;;;24.96;56.04;96948.41;5043806;28;20087;-52
2022/10/05 10:09:42;;;;;;;3.13;1.73;;;;;;;25.15;59.80;96946.56;5037228;28;20527;-48
2022/10/05 10:12:32;;;;;;;2.53;1.83;;;;;;;25.02;56.42;96946.72;5041087;28;20064;-47
2022/10/05 10:15:22;;;;;;;;;;;;;;;24.70;65.96;96952.19;5038908;28;21045;-48
2022/10/05 10:18:08;;;;;;;5.55;1.75;;;;;;;25.20;61.62;96940.53;5040782;28;19959;-48
2022/10/05 10:20:51;;;;;;;3.80;2.00;;;;;;;25.22;62.94;96939.22;5041030;28;20064;-52
2022/10/05 10:23:27;;;;;;;3.47;1.80;;;;;;;25.83;66.52;96940.13;5042662;28;20103;-49
2022/10/05 10:26:27;;;;;;;3.10;1.90;;;;;;;25.78;61.47;96935.41;5070847;28;20056;-47
2022/10/05 10:29:36;;;;;;;3.27;1.77;;;;;;;25.56;61.44;96929.66;5035943;28;20124;-50
2022/10/05 10:32:12;;;;;;;2.72;1.67;;;;;;;26.32;57.78;96932.72;5038562;28;20515;-49
2022/10/05 10:35:03;;;;;;;4.57;2.10;;;;;;;25.76;59.20;96931.28;5044769;28;20088;-48
2022/10/05 10:38:21;;;;;;;5.38;2.08;;;;;;;26.48;53.85;96928.56;5054960;28;20076;-46
2022/10/05 10:41:12;;;;;;;3.95;2.10;;;;;;;27.44;50.08;96934.47;5047105;28;20080;-50
2022/10/05 10:43:54;;;;;;;2.25;1.73;;;;;;;27.43;50.50;96925.53;5044385;28;20065;-46
2022/10/05 10:46:34;;;;;;;3.78;1.83;;;;;;;27.09;52.35;96929.94;5048507;28;20076;-48
2022/10/05 10:49:06;;;;;;;;;;;;;;;27.36;51.02;96930.25;5045166;28;20884;-46
2022/10/05 10:52:12;;;;;;;4.72;1.80;;;;;;;26.88;50.53;96922.44;5045107;28;19966;-48
2022/10/05 10:55:12;;;;;;;3.92;1.80;;;;;;;27.20;56.47;96926.41;4993022;28;20086;-46
2022/10/05 10:57:52;;;;;;;3.95;2.00;;;;;;;27.10;53.73;96928.03;5044666;28;20076;-46
2022/10/05 11:00:28;;;;;;;2.30;1.80;;;;;;;27.39;51.05;96920.81;5044384;28;20092;-50
2022/10/05 11:03:32;;;;;;;2.53;1.77;;;;;;;27.63;51.42;96911.56;5044861;28;21041;-46
2022/10/05 11:06:26;;;;;;;4.32;1.90;;;;;;;27.14;51.92;96921.13;5046307;28;20065;-49
2022/10/05 11:09:18;;;;;;;2.90;1.83;;;;;;;27.98;48.31;96915.16;5042210;28;20049;-49
2022/10/05 11:12:21;;;;;;;2.70;1.70;;;;;;;28.69;47.63;96902.78;5042471;28;20098;-52
2022/10/05 11:15:12;;;;;;;5.78;1.85;;;;;;;28.44;48.46;96905.13;5046031;28;20127;-45
2022/10/05 11:18:01;;;;;;;2.60;1.55;;;;;;;27.49;51.76;96914.78;5045817;28;20111;-50
2022/10/05 11:20:47;;;;;;;2.90;1.70;;;;;;;27.20;49.26;96906.63;5046991;28;20092;-50
2022/10/05 11:23:33;;;;;;;1.63;1.50;;;;;;;28.54;48.48;96900.69;5051649;28;20079;-48
2022/10/05 11:26:22;;;;;;;2.95;1.52;;;;;;;29.43;45.18;96897.00;5047198;28;20073;-48
2022/10/05 11:29:19;;;;;;;1.90;1.60;;;;;;;27.63;47.53;96905.28;5047037;28;20469;-48
2022/10/05 11:32:22;;;;;;;3.03;1.65;;;;;;;27.71;48.04;96898.69;5044197;28;20536;-49
2022/10/05 11:35:38;;;;;;;4.80;1.90;;;;;;;29.12;45.62;96887.66;5040920;28;20076;-50
2022/10/05 11:38:26;;;;;;;2.38;1.60;;;;;;;28.55;45.30;96882.50;4991270;28;20170;-46
2022/10/05 11:41:23;;;;;;;2.42;1.60;;;;;;;28.16;45.15;96885.94;5044294;28;20084;-50
2022/10/05 11:44:28;;;;;;;1.88;1.50;;;;;;;28.82;46.40;96875.28;5039752;28;20524;-48
2022/10/05 11:47:00;;;;;;;4.03;1.65;;;;;;;28.75;44.65;96871.13;5035407;28;20072;-49
2022/10/05 11:49:35;;;;;;;2.00;1.40;;;;;;;29.06;43.88;96864.22;5047359;28;20535;-46
2022/10/05 11:52:11;;;;;;;1.95;1.50;;;;;;;28.13;44.61;96867.47;5045835;28;20080;-48
2022/10/05 11:55:06;;;;;;;2.17;1.30;;;;;;;27.79;46.96;96872.03;5041846;28;20080;-52
2022/10/05 11:57:46;;;;;;;6.07;1.60;;;;;;;28.45;45.04;96860.66;5038598;28;20223;-46
2022/10/05 12:00:17;;;;;;;1.83;1.50;;;;;;;29.25;43.46;96851.13;5045411;28;20088;-45
2022/10/05 12:03:11;;;;;;;3.97;1.60;;;;;;;29.43;44.14;96850.81;5044932;28;20607;-53
2022/10/05 12:05:49;;;;;;;3.58;1.50;;;;;;;28.63;44.63;96852.22;5026151;28;20076;-47
2022/10/05 12:08:28;;;;;;;2.03;1.27;;;;;;;28.44;46.42;96846.25;5047910;28;20142;-50
2022/10/05 12:11:08;;;;;;;3.13;1.40;;;;;;;28.43;46.25;96846.53;5044137;28;20073;-46
2022/10/05 12:13:40;;;;;;;2.63;1.70;;;;;;;29.41;44.25;96838.56;5045635;28;20467;-45
2022/10/05 12:16:13;;;;;;;1.77;1.40;;;;;;;29.06;43.16;96840.59;5046393;28;20080;-47
2022/10/05 12:18:46;;;;;;;3.00;1.40;;;;;;;28.70;44.13;96835.75;5045168;28;20127;-45
2022/10/05 12:21:23;;;;;;;1.77;1.38;;;;;;;29.04;42.68;96840.06;5047194;28;20558;-50
2022/10/05 12:23:53;;;;;;;1.92;1.40;;;;;;;28.66;43.22;96834.63;5047099;28;20081;-51
2022/10/05 12:26:26;;;;;;;2.95;1.70;;;;;;;28.52;44.19;96832.25;5046881;28;20601;-48